עמוד ראשי
METAR-TAF:

METAR-TAF

שדות תעופה :

Punta Caucedo, הרפובליקה הדומיניקאנית

קו רוחב: 18-26N, קו אורך: 069-40W, גובה: 18מטר

תצפית מזג אוויר נוכחית

הדו"ח נערך לפני 42דקות, בשעה 00:00 UTC
רוח 7קשר מכיוון דרום-מזרח
טמפרטורת 28 צלסיוס
לחות 84%
לחץ 1013 hPa
ראות 10 קילומטר או יותר
מעט עננים בגובה 2000רגל
עננים פזורים בגובה 30000רגל

METAR: MDSD 130000Z 13007KT 9999 FEW020 SCT300 28/25 Q1013

זמן: 20:42 (00:42 UTC)

תחזית

הדו"ח נערך לפני 14 שעות ו 42דקות, בשעה 10:00 UTC
תחזית בתוקף מ 12 ב 12 UTC עד 13 ב 12 UTC
רוח 4קשר מכיוון צפון-מזרח
ראות 10 קילומטר או יותר
מעט עננים בגובה 1800רגל
עננים פזורים בגובה 30000רגל
יעשה מ
12 ב 16 UTC עד 12 ב 18 UTC
רוח 8קשר מכיוון דרום-מזרח

TAF: MDSD 121000Z 1212/1312 04004KT 9999 FEW018 SCT300 BECMG 1216/1218 14008KT

תצפיות ותחזיות מזג אוויר לגבי יותר מ- 4,000 שדות תעופה ברחבי העולם. דוחות METAR ו- TAF.

התחנות הזמינות מסומנות בנקודות צהובות ואדומות על גבי המפה.

העבר את העכבר לנקודה הצבעונית על מנת לראות את שם התחנה.

לאחר מכן, לחץ כדי לראות את תוכן ואת תחזיות מזג האוויר.

כדי לשנות את המפה: לחץ על הכפתורים הירוקים עם הפלוס השחור כדי להתקרב; על הכפתור הירוק עם המקף כדי להתרחק; או בחיצים הירוקים למפות סמוכות.


METAR-TAF: